Time;durP1;ratioP1;P1;durP2;ratioP2;P2;SDS_P1;SDS_P2;PMS_P1;PMS_P2;Temp;Humidity;BMP_temperature;BMP_pressure;BME280_temperature;BME280_humidity;BME280_pressure;Samples;Min_cycle;Max_cycle;Signal;HPM_P1;HPM_P2
2022/10/06 03:01:05;;;;;;;0.80;0.70;;;15.70;79.10;;;;;;5900727;23;20496;-73
2022/10/06 03:03:33;;;;;;;0.70;0.60;;;15.70;78.90;;;;;;4993662;28;20492;-72
2022/10/06 03:06:01;;;;;;;0.70;0.70;;;15.70;78.90;;;;;;4993633;28;20548;-73
2022/10/06 03:08:27;;;;;;;0.70;0.70;;;15.70;78.90;;;;;;4993285;28;20813;-73
2022/10/06 03:11:00;;;;;;;1.00;0.70;;;15.60;79.10;;;;;;4993487;28;20469;-73
2022/10/06 03:13:27;;;;;;;0.70;0.70;;;15.60;79.20;;;;;;4993625;28;20516;-73
2022/10/06 03:15:54;;;;;;;0.70;0.70;;;15.60;79.30;;;;;;4994997;28;20472;-73
2022/10/06 03:18:22;;;;;;;1.00;0.90;;;15.60;79.20;;;;;;4993513;28;20505;-73
2022/10/06 03:20:49;;;;;;;0.60;0.60;;;15.50;79.40;;;;;;4993132;28;20477;-73
2022/10/06 03:23:15;;;;;;;0.60;0.60;;;15.60;79.30;;;;;;4993484;28;20454;-73
2022/10/06 03:25:42;;;;;;;0.70;0.70;;;15.60;79.20;;;;;;4993395;28;20453;-73
2022/10/06 03:28:09;;;;;;;0.80;0.60;;;15.50;79.20;;;;;;4995987;28;20449;-73
2022/10/06 03:30:35;;;;;;;1.63;0.67;;;15.50;79.30;;;;;;4996903;28;20452;-73
2022/10/06 03:33:02;;;;;;;0.60;0.60;;;15.50;79.40;;;;;;4996978;28;20445;-73
2022/10/06 03:35:30;;;;;;;0.77;0.77;;;15.50;79.40;;;;;;4996868;28;20453;-73
2022/10/06 03:37:59;;;;;;;0.80;0.80;;;15.40;79.70;;;;;;4996821;28;20457;-73
2022/10/06 03:40:25;;;;;;;0.70;0.70;;;15.40;79.80;;;;;;4996347;28;20818;-73
2022/10/06 03:42:52;;;;;;;0.63;0.63;;;15.50;79.80;;;;;;4996589;28;20492;-73
2022/10/06 03:45:19;;;;;;;0.70;0.70;;;15.50;79.90;;;;;;4996682;28;20477;-73
2022/10/06 03:47:45;;;;;;;0.70;0.63;;;15.60;79.80;;;;;;4996323;28;20830;-73
2022/10/06 03:50:12;;;;;;;0.60;0.60;;;15.70;79.70;;;;;;4996570;28;20454;-73
2022/10/06 03:52:40;;;;;;;0.87;0.80;;;15.70;79.60;;;;;;4996359;28;20512;-73
2022/10/06 03:55:07;;;;;;;0.67;0.60;;;15.60;80.10;;;;;;4996505;28;20437;-73
2022/10/06 03:57:34;;;;;;;0.70;0.60;;;15.60;79.90;;;;;;4996454;28;20528;-73
2022/10/06 04:00:01;;;;;;;0.80;0.80;;;15.70;80.00;;;;;;4996387;28;20441;-73
2022/10/06 04:02:28;;;;;;;0.70;0.70;;;15.70;79.80;;;;;;4995966;28;20481;-73
2022/10/06 04:04:55;;;;;;;0.70;0.60;;;15.70;79.70;;;;;;4996341;28;20449;-73
2022/10/06 04:07:21;;;;;;;2.00;0.80;;;15.70;79.60;;;;;;4995925;28;20976;-73
2022/10/06 04:09:49;;;;;;;0.73;0.73;;;15.80;79.70;;;;;;4995945;28;20987;-73
2022/10/06 04:12:16;;;;;;;0.80;0.60;;;15.80;79.70;;;;;;4996013;28;20540;-73
2022/10/06 04:14:43;;;;;;;0.70;0.70;;;15.90;79.60;;;;;;4996148;28;20454;-73
2022/10/06 04:17:10;;;;;;;0.70;0.70;;;15.90;79.40;;;;;;4996112;28;20445;-75
2022/10/06 04:19:37;;;;;;;0.60;0.60;;;15.90;79.20;;;;;;4996057;28;20454;-73
2022/10/06 04:22:03;;;;;;;0.90;0.80;;;15.90;79.20;;;;;;4995880;28;20473;-73
2022/10/06 04:24:30;;;;;;;0.93;0.70;;;15.90;79.20;;;;;;4995969;28;20461;-73
2022/10/06 04:27:26;;;;;;;0.70;0.60;;;15.90;79.20;;;;;;4995920;28;20449;-73
2022/10/06 04:29:45;;;;;;;0.70;0.70;;;16.00;79.10;;;;;;4996120;28;20452;-73
2022/10/06 04:32:13;;;;;;;0.70;0.70;;;15.90;79.00;;;;;;4995880;28;20512;-73
2022/10/06 04:34:40;;;;;;;0.67;0.63;;;15.90;79.10;;;;;;4995694;28;20940;-73
2022/10/06 04:37:07;;;;;;;0.60;0.60;;;15.90;79.00;;;;;;4996133;28;20453;-73
2022/10/06 04:39:36;;;;;;;1.33;0.70;;;15.90;79.00;;;;;;4995802;28;20453;-73
2022/10/06 04:42:06;;;;;;;0.70;0.70;;;15.80;79.10;;;;;;4995601;28;20652;-73
2022/10/06 04:44:32;;;;;;;0.80;0.70;;;15.80;79.10;;;;;;4995427;28;21020;-73
2022/10/06 04:47:00;;;;;;;0.80;0.60;;;15.70;79.30;;;;;;4995565;28;20861;-73
2022/10/06 04:49:26;;;;;;;0.77;0.77;;;15.70;79.30;;;;;;4995505;28;20480;-73
2022/10/06 04:51:53;;;;;;;0.77;0.60;;;15.70;79.30;;;;;;4995362;28;20488;-73
2022/10/06 04:54:20;;;;;;;0.90;0.70;;;15.60;79.50;;;;;;4995447;28;20508;-73
2022/10/06 04:56:47;;;;;;;0.70;0.70;;;15.60;79.50;;;;;;4995341;28;20453;-73
2022/10/06 04:59:15;;;;;;;0.77;0.70;;;15.60;79.40;;;;;;4995405;28;20452;-73
2022/10/06 05:01:42;;;;;;;1.07;0.70;;;15.60;79.50;;;;;;4994832;28;20894;-73
2022/10/06 05:04:08;;;;;;;0.70;0.67;;;15.60;79.40;;;;;;4995273;28;20454;-73
2022/10/06 05:06:37;;;;;;;1.27;0.70;;;15.50;79.60;;;;;;4995391;28;20503;-73
2022/10/06 05:09:06;;;;;;;0.60;0.60;;;15.50;79.70;;;;;;4994852;28;20504;-73
2022/10/06 05:11:33;;;;;;;0.70;0.70;;;15.50;79.80;;;;;;4994643;28;20972;-73
2022/10/06 05:14:00;;;;;;;0.60;0.60;;;15.50;79.70;;;;;;4995789;28;20491;-73
2022/10/06 05:16:29;;;;;;;1.63;0.80;;;15.50;80.00;;;;;;4994972;28;20457;-74
2022/10/06 05:18:57;;;;;;;1.43;0.70;;;15.50;80.00;;;;;;4994941;28;20449;-74
2022/10/06 05:21:26;;;;;;;0.73;0.73;;;15.50;80.00;;;;;;4994521;28;20872;-74
2022/10/06 05:23:52;;;;;;;0.67;0.67;;;15.60;79.90;;;;;;4994872;28;20449;-74
2022/10/06 05:26:21;;;;;;;0.70;0.70;;;15.70;79.90;;;;;;4994810;28;20454;-74
2022/10/06 05:28:48;;;;;;;0.67;0.67;;;15.80;79.50;;;;;;4994765;28;20500;-74
2022/10/06 05:31:17;;;;;;;0.70;0.70;;;15.80;79.40;;;;;;4994663;28;20469;-73
2022/10/06 05:33:45;;;;;;;0.70;0.70;;;15.90;79.30;;;;;;4994619;28;20488;-73
2022/10/06 05:36:15;;;;;;;0.80;0.60;;;15.90;79.50;;;;;;4994607;28;20450;-73
2022/10/06 05:38:42;;;;;;;0.77;0.77;;;15.90;79.20;;;;;;4994638;28;20453;-73
2022/10/06 05:41:11;;;;;;;0.60;0.60;;;15.90;79.30;;;;;;4994224;28;20984;-73
2022/10/06 05:43:39;;;;;;;0.60;0.60;;;15.90;79.50;;;;;;4994450;28;20449;-73
2022/10/06 05:46:08;;;;;;;0.70;0.70;;;15.80;79.80;;;;;;4994403;28;20453;-76
2022/10/06 05:48:34;;;;;;;0.70;0.70;;;15.90;79.80;;;;;;4994179;28;20852;-74
2022/10/06 05:51:04;;;;;;;0.93;0.80;;;15.90;79.80;;;;;;4993938;28;20472;-74
2022/10/06 05:53:34;;;;;;;0.60;0.60;;;16.00;79.60;;;;;;4994332;28;20470;-74
2022/10/06 05:56:06;;;;;;;0.60;0.60;;;16.00;79.30;;;;;;4994360;28;20456;-75
2022/10/06 05:58:33;;;;;;;0.90;0.73;;;16.10;79.20;;;;;;4994074;28;21004;-74
2022/10/06 06:01:08;;;;;;;0.73;0.63;;;16.20;79.10;;;;;;4993967;28;20489;-74
2022/10/06 06:03:34;;;;;;;0.70;0.70;;;16.30;79.00;;;;;;4994310;28;20448;-76
2022/10/06 06:06:04;;;;;;;0.70;0.70;;;16.40;79.10;;;;;;4993915;28;20853;-74
2022/10/06 06:08:30;;;;;;;0.70;0.70;;;16.40;78.90;;;;;;4994177;28;20452;-74
2022/10/06 06:11:06;;;;;;;0.77;0.70;;;16.50;78.70;;;;;;4994025;28;20465;-74
2022/10/06 06:13:33;;;;;;;0.80;0.80;;;16.50;78.80;;;;;;4993610;28;20913;-74
2022/10/06 06:16:03;;;;;;;0.87;0.70;;;16.60;78.80;;;;;;4994031;28;20453;-75
2022/10/06 06:18:30;;;;;;;0.70;0.70;;;16.60;78.80;;;;;;4994065;28;20499;-75
2022/10/06 06:20:57;;;;;;;0.80;0.80;;;16.60;79.20;;;;;;4993902;28;20473;-75
2022/10/06 06:23:25;;;;;;;0.70;0.70;;;16.60;79.00;;;;;;4994022;28;20441;-75
2022/10/06 06:26:00;;;;;;;0.70;0.70;;;16.70;78.70;;;;;;4993957;28;20462;-75
2022/10/06 06:28:28;;;;;;;0.70;0.70;;;16.70;78.80;;;;;;4993854;28;20483;-74
2022/10/06 06:31:02;;;;;;;0.80;0.80;;;16.80;79.00;;;;;;4993841;28;20477;-75
2022/10/06 06:33:29;;;;;;;0.77;0.77;;;16.80;79.10;;;;;;4993517;28;21084;-75
2022/10/06 06:35:56;;;;;;;0.70;0.70;;;16.80;79.20;;;;;;4993518;28;20971;-75
2022/10/06 06:38:22;;;;;;;0.70;0.70;;;16.90;79.30;;;;;;4993798;28;20462;-75
2022/10/06 06:40:50;;;;;;;0.70;0.70;;;17.00;79.20;;;;;;4994383;28;21016;-75
2022/10/06 06:43:17;;;;;;;0.80;0.77;;;17.00;79.30;;;;;;4993696;28;20445;-75
2022/10/06 06:45:44;;;;;;;0.70;0.70;;;17.10;79.20;;;;;;4993821;28;20501;-76
2022/10/06 06:48:14;;;;;;;0.90;0.67;;;17.10;79.10;;;;;;4993701;28;20863;-75
2022/10/06 06:50:41;;;;;;;0.70;0.70;;;17.20;79.20;;;;;;4993731;28;20449;-75
2022/10/06 06:53:07;;;;;;;0.80;0.80;;;17.30;79.10;;;;;;4993722;28;20482;-74
2022/10/06 06:55:34;;;;;;;0.70;0.70;;;17.30;79.20;;;;;;4993764;28;20449;-75
2022/10/06 06:58:02;;;;;;;0.80;0.70;;;17.40;79.30;;;;;;4993657;28;20449;-76
2022/10/06 07:00:29;;;;;;;1.47;0.80;;;17.40;79.40;;;;;;4993618;28;20454;-75
2022/10/06 07:02:59;;;;;;;0.80;0.70;;;17.50;79.50;;;;;;4995629;28;20461;-76
2022/10/06 07:05:26;;;;;;;1.00;0.90;;;17.50;79.60;;;;;;4998005;28;20448;-75
2022/10/06 07:07:53;;;;;;;0.70;0.60;;;17.50;79.90;;;;;;4997277;28;20449;-75
2022/10/06 07:10:19;;;;;;;0.70;0.70;;;17.50;80.10;;;;;;4997455;28;20449;-76
2022/10/06 07:12:46;;;;;;;1.27;0.80;;;17.70;79.90;;;;;;4996921;28;20489;-76
2022/10/06 07:26:10;;;;;;;0.70;0.60;;;18.00;78.40;;;;;;4998930;28;20437;-76
2022/10/06 07:28:37;;;;;;;1.40;0.63;;;18.00;78.40;;;;;;4998914;28;20507;-75
2022/10/06 07:31:05;;;;;;;0.80;0.77;;;18.10;78.00;;;;;;4999193;28;20476;-76
2022/10/06 07:33:32;;;;;;;0.60;0.60;;;18.20;78.00;;;;;;4998699;28;20492;-75
2022/10/06 07:35:59;;;;;;;0.70;0.60;;;18.20;76.80;;;;;;4999464;28;20457;-76
2022/10/06 07:38:26;;;;;;;0.63;0.63;;;18.10;76.30;;;;;;4999102;28;20457;-76
2022/10/06 07:40:57;;;;;;;0.80;0.70;;;17.90;76.30;;;;;;4999207;28;20568;-76
2022/10/06 07:43:24;;;;;;;0.87;0.67;;;18.00;76.40;;;;;;4999201;28;20507;-75
2022/10/06 07:45:50;;;;;;;0.90;0.90;;;18.00;75.60;;;;;;4998631;28;20441;-76
2022/10/06 07:48:20;;;;;;;0.60;0.60;;;17.90;75.60;;;;;;4998671;28;20449;-76
2022/10/06 07:50:48;;;;;;;1.27;0.60;;;18.00;75.80;;;;;;4998314;28;20492;-76
2022/10/06 07:53:16;;;;;;;1.13;0.67;;;18.10;74.80;;;;;;4998990;28;20908;-76
2022/10/06 07:55:45;;;;;;;1.17;0.60;;;18.00;74.50;;;;;;4998727;28;20531;-76
2022/10/06 07:58:13;;;;;;;0.67;0.67;;;18.00;74.60;;;;;;4998681;28;20453;-76
2022/10/06 08:00:39;;;;;;;0.70;0.60;;;18.10;74.10;;;;;;4998263;28;20959;-76
2022/10/06 08:03:06;;;;;;;0.90;0.60;;;18.10;73.90;;;;;;4997985;28;20449;-76
2022/10/06 08:05:35;;;;;;;0.70;0.63;;;18.20;73.90;;;;;;4997871;28;20477;-76
2022/10/06 08:08:01;;;;;;;0.60;0.60;;;18.40;73.90;;;;;;4997964;28;20487;-76
2022/10/06 08:10:28;;;;;;;0.70;0.70;;;18.40;74.30;;;;;;4997910;28;20445;-76
2022/10/06 08:12:55;;;;;;;0.70;0.60;;;18.50;73.90;;;;;;4997616;28;20477;-76
2022/10/06 08:15:21;;;;;;;0.60;0.60;;;18.60;73.60;;;;;;4997976;28;20960;-76
2022/10/06 08:17:48;;;;;;;0.60;0.50;;;18.60;72.70;;;;;;4998135;28;20453;-76
2022/10/06 08:20:17;;;;;;;0.70;0.60;;;18.60;72.40;;;;;;4998381;28;20460;-76
2022/10/06 08:22:47;;;;;;;0.70;0.53;;;18.60;72.60;;;;;;4998023;28;20472;-76
2022/10/06 08:25:14;;;;;;;0.60;0.60;;;18.70;72.40;;;;;;4997829;28;20957;-76
2022/10/06 08:27:42;;;;;;;0.70;0.60;;;18.70;72.00;;;;;;4997803;28;20457;-76
2022/10/06 08:30:10;;;;;;;0.60;0.50;;;18.80;71.90;;;;;;4998030;28;20484;-76
2022/10/06 08:32:37;;;;;;;0.80;0.70;;;18.80;71.40;;;;;;4997796;28;20476;-76
2022/10/06 08:35:05;;;;;;;0.60;0.60;;;18.70;70.90;;;;;;4998141;28;20448;-76
2022/10/06 08:37:31;;;;;;;0.70;0.60;;;18.70;70.50;;;;;;4998075;28;20452;-76
2022/10/06 08:39:59;;;;;;;0.80;0.60;;;18.80;70.60;;;;;;4998505;28;20504;-77
2022/10/06 08:42:36;;;;;;;0.80;0.67;;;19.00;70.80;;;;;;4998413;28;20477;-77
2022/10/06 08:45:05;;;;;;;0.70;0.60;;;18.90;68.70;;;;;;4998106;28;20802;-77
2022/10/06 08:47:35;;;;;;;0.93;0.60;;;18.90;68.20;;;;;;4996499;28;20449;-76
2022/10/06 08:50:05;;;;;;;0.80;0.73;;;18.90;67.80;;;;;;4998949;28;20446;-76
2022/10/06 08:52:46;;;;;;;0.90;0.70;;;18.80;67.70;;;;;;4997295;28;20520;-76
2022/10/06 08:55:28;;;;;;;0.70;0.60;;;18.70;68.30;;;;;;4997476;28;20434;-77
2022/10/06 08:58:13;;;;;;;0.70;0.60;;;18.90;68.30;;;;;;5000453;28;20460;-77
2022/10/06 09:00:39;;;;;;;0.80;0.67;;;18.90;67.50;;;;;;4999459;28;20438;-78
2022/10/06 09:03:14;;;;;;;0.80;0.60;;;19.00;67.20;;;;;;4999823;28;20425;-77
2022/10/06 09:05:41;;;;;;;0.87;0.60;;;19.00;68.00;;;;;;4998902;28;20436;-77
2022/10/06 09:08:23;;;;;;;0.60;0.60;;;19.00;68.10;;;;;;4998051;28;20453;-76
2022/10/06 09:11:05;;;;;;;0.70;0.70;;;19.10;66.80;;;;;;4997375;28;20511;-76
2022/10/06 09:13:37;;;;;;;1.27;0.60;;;19.10;66.30;;;;;;4995522;28;20833;-75
2022/10/06 09:16:08;;;;;;;0.67;0.60;;;19.20;66.70;;;;;;4997203;28;20438;-76
2022/10/06 09:18:39;;;;;;;0.73;0.70;;;19.20;67.50;;;;;;4995990;28;20488;-75
2022/10/06 09:21:11;;;;;;;0.67;0.67;;;19.40;66.40;;;;;;4997050;28;20527;-75
2022/10/06 09:23:47;;;;;;;0.80;0.80;;;19.50;65.80;;;;;;4996546;28;20902;-75
2022/10/06 09:26:17;;;;;;;0.70;0.70;;;19.60;66.00;;;;;;4997042;28;20503;-75
2022/10/06 09:28:45;;;;;;;0.63;0.60;;;19.70;65.40;;;;;;4996901;28;20449;-77
2022/10/06 09:31:22;;;;;;;0.70;0.60;;;19.90;64.90;;;;;;4996743;28;20465;-77
2022/10/06 09:33:52;;;;;;;0.80;0.77;;;19.80;65.40;;;;;;5001767;28;20520;-77
2022/10/06 09:36:19;;;;;;;0.60;0.50;;;20.00;65.50;;;;;;5006069;28;20457;-76
2022/10/06 09:38:52;;;;;;;0.60;0.50;;;20.00;64.20;;;;;;5005611;28;20525;-78
2022/10/06 09:41:24;;;;;;;0.60;0.60;;;20.00;63.50;;;;;;5002767;28;20485;-76
2022/10/06 09:43:54;;;;;;;0.60;0.60;;;20.10;64.80;;;;;;5002739;28;20425;-76
2022/10/06 09:46:31;;;;;;;0.77;0.70;;;20.10;65.10;;;;;;5004136;28;20433;-76
2022/10/06 09:49:16;;;;;;;0.67;0.60;;;20.20;65.00;;;;;;5003192;28;20905;-75
2022/10/06 09:51:59;;;;;;;0.70;0.63;;;20.20;64.20;;;;;;5004146;28;20989;-77
2022/10/06 09:54:27;;;;;;;0.60;0.60;;;20.30;63.40;;;;;;5004934;28;20537;-75
2022/10/06 09:56:58;;;;;;;0.60;0.60;;;20.40;63.50;;;;;;5004937;28;20457;-76
2022/10/06 09:59:32;;;;;;;0.83;0.83;;;20.40;62.90;;;;;;5004448;28;20513;-78
2022/10/06 10:02:00;;;;;;;0.60;0.60;;;20.40;64.70;;;;;;5004202;28;20477;-76
2022/10/06 10:04:30;;;;;;;1.03;0.70;;;20.50;64.40;;;;;;5003098;28;20521;-76
2022/10/06 10:07:15;;;;;;;0.70;0.60;;;20.60;63.70;;;;;;5000867;28;20519;-76
2022/10/06 10:09:42;;;;;;;0.70;0.60;;;20.60;63.70;;;;;;4995031;28;20436;-77
2022/10/06 10:12:26;;;;;;;0.70;0.63;;;20.70;63.60;;;;;;4994791;28;20488;-75
2022/10/06 10:14:56;;;;;;;0.70;0.60;;;20.90;63.10;;;;;;4994732;28;20477;-75
2022/10/06 10:17:32;;;;;;;0.70;0.60;;;21.00;61.90;;;;;;4995395;28;20809;-76
2022/10/06 10:20:01;;;;;;;0.70;0.67;;;20.90;61.30;;;;;;4995283;28;20437;-76
2022/10/06 10:22:35;;;;;;;0.83;0.70;;;20.90;62.30;;;;;;4996744;28;20564;-76
2022/10/06 10:25:16;;;;;;;1.30;0.60;;;20.80;63.00;;;;;;4995227;28;20496;-76
2022/10/06 10:27:51;;;;;;;0.80;0.60;;;20.70;62.60;;;;;;4995024;28;20440;-75
2022/10/06 10:30:18;;;;;;;0.70;0.60;;;20.70;62.70;;;;;;4995575;28;20520;-76
2022/10/06 10:33:02;;;;;;;0.70;0.60;;;20.70;62.80;;;;;;4994689;28;20503;-76
2022/10/06 10:35:31;;;;;;;0.70;0.70;;;20.60;63.00;;;;;;4994876;28;20428;-76
2022/10/06 10:38:03;;;;;;;1.47;0.70;;;20.60;64.10;;;;;;4999016;28;20450;-77
2022/10/06 10:40:43;;;;;;;0.60;0.60;;;20.70;64.40;;;;;;4998792;28;20430;-74
2022/10/06 10:43:28;;;;;;;0.70;0.60;;;20.80;63.90;;;;;;4998188;28;20425;-75
2022/10/06 10:45:59;;;;;;;0.60;0.60;;;20.70;63.60;;;;;;4998179;28;20440;-75
2022/10/06 10:48:32;;;;;;;0.70;0.70;;;20.60;64.20;;;;;;4998268;28;20461;-75
2022/10/06 10:51:04;;;;;;;0.60;0.60;;;20.70;62.60;;;;;;4997995;28;20476;-75
2022/10/06 10:53:38;;;;;;;0.70;0.60;;;20.80;63.30;;;;;;4998014;28;20511;-74
2022/10/06 10:56:09;;;;;;;0.70;0.60;;;20.90;62.40;;;;;;4999022;28;20461;-75
2022/10/06 10:58:41;;;;;;;2.27;0.70;;;20.90;62.70;;;;;;4997876;28;20901;-76
2022/10/06 11:01:17;;;;;;;0.90;0.80;;;20.80;62.90;;;;;;5004021;28;20477;-75
2022/10/06 11:03:55;;;;;;;0.70;0.60;;;20.70;62.80;;;;;;5004337;28;20795;-76
2022/10/06 11:06:42;;;;;;;0.60;0.60;;;20.80;62.90;;;;;;5004829;28;20433;-78
2022/10/06 11:09:12;;;;;;;0.70;0.60;;;20.70;63.10;;;;;;5006511;28;20425;-76
2022/10/06 11:11:52;;;;;;;0.60;0.60;;;20.80;64.20;;;;;;5004223;28;20471;-76
2022/10/06 11:14:33;;;;;;;1.17;0.70;;;20.60;63.60;;;;;;5003594;28;20472;-75
2022/10/06 11:17:06;;;;;;;0.97;0.70;;;20.60;65.10;;;;;;5004306;28;20460;-76
2022/10/06 11:19:43;;;;;;;0.70;0.70;;;20.90;64.80;;;;;;5005027;28;20453;-77
2022/10/06 11:22:17;;;;;;;1.00;0.70;;;20.90;64.90;;;;;;5000523;28;20476;-75
2022/10/06 11:24:53;;;;;;;0.93;0.80;;;21.00;64.00;;;;;;5001486;28;20437;-75
2022/10/06 11:27:32;;;;;;;0.80;0.80;;;21.10;63.60;;;;;;5000983;28;20439;-76
2022/10/06 11:30:05;;;;;;;0.90;0.60;;;21.10;62.90;;;;;;5001423;28;20438;-76
2022/10/06 11:32:44;;;;;;;0.67;0.60;;;21.10;63.20;;;;;;5000909;28;20469;-77
2022/10/06 11:35:21;;;;;;;0.80;0.60;;;21.30;63.50;;;;;;5001657;28;20469;-76
2022/10/06 11:37:55;;;;;;;0.70;0.60;;;21.40;62.60;;;;;;5001907;28;20448;-77
2022/10/06 11:40:37;;;;;;;0.70;0.70;;;21.70;62.70;;;;;;5001236;28;20429;-78
2022/10/06 11:43:14;;;;;;;0.60;0.60;;;22.10;60.80;;;;;;5000786;28;20840;-76
2022/10/06 11:45:51;;;;;;;0.70;0.60;;;22.10;60.50;;;;;;4999342;28;20452;-75
2022/10/06 11:48:23;;;;;;;0.70;0.70;;;22.20;61.60;;;;;;4996064;28;20429;-76
2022/10/06 11:50:54;;;;;;;0.80;0.60;;;22.50;60.30;;;;;;4996543;28;20835;-76
2022/10/06 11:53:40;;;;;;;0.70;0.67;;;22.70;60.20;;;;;;4996786;28;20444;-76
2022/10/06 11:56:38;;;;;;;0.80;0.60;;;22.80;59.00;;;;;;4996682;28;20441;-76
2022/10/06 11:59:30;;;;;;;0.70;0.70;;;22.80;59.50;;;;;;4993350;28;20469;-76
2022/10/06 12:02:01;;;;;;;0.83;0.60;;;22.40;59.30;;;;;;4977390;28;20504;-76
2022/10/06 12:04:28;;;;;;;0.60;0.57;;;22.30;59.70;;;;;;4996525;28;20429;-76
2022/10/06 12:07:00;;;;;;;0.80;0.73;;;22.10;60.60;;;;;;4996516;28;20445;-75
2022/10/06 12:09:51;;;;;;;0.80;0.63;;;22.10;61.70;;;;;;4996444;28;20437;-75
2022/10/06 12:12:41;;;;;;;0.80;0.70;;;21.90;61.70;;;;;;4998571;28;20465;-75
2022/10/06 12:15:20;;;;;;;0.60;0.60;;;22.00;61.70;;;;;;4972765;28;20502;-75
2022/10/06 12:17:55;;;;;;;0.80;0.70;;;21.90;61.90;;;;;;5002218;28;20437;-76
2022/10/06 12:20:28;;;;;;;0.70;0.70;;;21.90;62.00;;;;;;5002877;28;20436;-76
2022/10/06 12:23:00;;;;;;;0.70;0.70;;;22.10;62.40;;;;;;4996458;28;20484;-76
2022/10/06 12:25:36;;;;;;;0.70;0.67;;;22.50;61.70;;;;;;4996244;28;20426;-75
2022/10/06 12:28:09;;;;;;;0.90;0.73;;;22.90;60.90;;;;;;4995997;28;20440;-76
2022/10/06 12:30:52;;;;;;;0.90;0.70;;;23.10;59.60;;;;;;4995686;28;20924;-76
2022/10/06 12:33:36;;;;;;;0.80;0.60;;;22.90;59.30;;;;;;4996432;28;20449;-75
2022/10/06 12:36:03;;;;;;;0.73;0.70;;;22.80;60.00;;;;;;4996012;28;20542;-75
2022/10/06 12:38:42;;;;;;;0.70;0.60;;;22.80;60.10;;;;;;4995953;28;20445;-77
2022/10/06 12:41:11;;;;;;;0.70;0.70;;;22.40;60.10;;;;;;4995772;28;20469;-75
2022/10/06 12:43:52;;;;;;;0.80;0.77;;;22.20;61.20;;;;;;4996022;28;20449;-75
2022/10/06 12:46:48;;;;;;;0.90;0.70;;;21.90;62.50;;;;;;4995857;28;20452;-76
2022/10/06 12:49:35;;;;;;;0.67;0.60;;;21.70;62.30;;;;;;4950472;28;20496;-74
2022/10/06 12:52:16;;;;;;;0.83;0.77;;;21.60;62.20;;;;;;4995511;28;20523;-75
2022/10/06 12:54:46;;;;;;;1.10;0.80;;;21.40;62.70;;;;;;4995449;28;20473;-74
2022/10/06 12:57:18;;;;;;;0.70;0.70;;;21.20;64.20;;;;;;4995122;28;20972;-76
2022/10/06 12:59:46;;;;;;;1.20;0.80;;;21.20;63.70;;;;;;4994296;28;20457;-76
2022/10/06 13:02:17;;;;;;;0.70;0.70;;;21.00;64.60;;;;;;4994871;28;20568;-75
2022/10/06 13:04:48;;;;;;;0.90;0.70;;;20.90;63.80;;;;;;4994959;28;20430;-75
2022/10/06 13:07:18;;;;;;;0.60;0.60;;;20.80;63.60;;;;;;4995029;28;20871;-75
2022/10/06 13:09:47;;;;;;;0.93;0.70;;;20.80;64.30;;;;;;4995131;28;20861;-75
2022/10/06 13:12:29;;;;;;;1.30;0.80;;;20.90;64.10;;;;;;4994954;28;20520;-75
2022/10/06 13:15:16;;;;;;;0.70;0.70;;;20.90;64.50;;;;;;4994898;28;20489;-76
2022/10/06 13:17:44;;;;;;;0.80;0.80;;;20.90;63.60;;;;;;4994946;28;20460;-76
2022/10/06 13:20:22;;;;;;;0.70;0.60;;;21.00;63.50;;;;;;4994906;28;20531;-75
2022/10/06 13:22:59;;;;;;;0.80;0.60;;;21.10;63.50;;;;;;4994892;28;20433;-75
2022/10/06 13:25:32;;;;;;;0.60;0.60;;;21.30;63.20;;;;;;4994794;28;20468;-73
2022/10/06 13:28:01;;;;;;;0.73;0.70;;;21.20;63.20;;;;;;4994798;28;20433;-76
2022/10/06 13:30:28;;;;;;;0.80;0.70;;;21.20;63.70;;;;;;4994581;28;20457;-75
2022/10/06 13:32:56;;;;;;;1.10;0.60;;;21.00;63.60;;;;;;4994719;28;20496;-76
2022/10/06 13:35:26;;;;;;;0.70;0.70;;;21.00;64.20;;;;;;4994368;28;20830;-75
2022/10/06 13:37:54;;;;;;;1.00;0.60;;;21.10;64.40;;;;;;4994625;28;20504;-77
2022/10/06 13:40:31;;;;;;;0.70;0.63;;;21.10;64.30;;;;;;4994753;28;20457;-75
2022/10/06 13:43:00;;;;;;;0.80;0.70;;;20.70;64.30;;;;;;4994893;28;20783;-77
2022/10/06 13:45:28;;;;;;;1.67;0.80;;;20.70;64.50;;;;;;4994742;28;20449;-75
2022/10/06 13:48:03;;;;;;;0.80;0.73;;;20.70;64.90;;;;;;4994258;28;20454;-77
2022/10/06 13:50:31;;;;;;;0.80;0.70;;;20.40;64.80;;;;;;4995226;28;20861;-76
2022/10/06 13:52:58;;;;;;;0.90;0.80;;;20.30;65.40;;;;;;4994126;28;20941;-77
2022/10/06 13:55:27;;;;;;;0.70;0.60;;;20.40;65.40;;;;;;4994351;28;20488;-76
2022/10/06 13:58:08;;;;;;;0.80;0.80;;;20.60;65.80;;;;;;4994646;28;20481;-76
2022/10/06 14:00:48;;;;;;;1.00;0.80;;;20.60;65.50;;;;;;4994105;28;20492;-76
2022/10/06 14:03:22;;;;;;;0.70;0.70;;;20.80;64.80;;;;;;4994222;28;20525;-76
2022/10/06 14:05:51;;;;;;;1.17;0.80;;;21.10;64.10;;;;;;4994268;28;20473;-76
2022/10/06 14:08:24;;;;;;;0.70;0.60;;;21.40;62.70;;;;;;4994015;28;20803;-76
2022/10/06 14:10:53;;;;;;;0.70;0.60;;;21.90;62.00;;;;;;4993849;28;20469;-77
2022/10/06 14:13:23;;;;;;;0.60;0.60;;;23.20;59.80;;;;;;4993840;28;20961;-77
2022/10/06 14:15:52;;;;;;;0.70;0.70;;;25.00;56.20;;;;;;4993988;28;20624;-76
2022/10/06 14:18:22;;;;;;;0.80;0.80;;;26.80;52.40;;;;;;4994080;28;20484;-76
2022/10/06 14:20:52;;;;;;;0.60;0.60;;;28.60;48.70;;;;;;4994015;28;20473;-75
2022/10/06 14:23:43;;;;;;;0.67;0.60;;;30.20;46.50;;;;;;4994015;28;20426;-75
2022/10/06 14:26:11;;;;;;;0.70;0.70;;;30.30;44.20;;;;;;4994389;28;20483;-75
2022/10/06 14:28:38;;;;;;;1.00;0.70;;;29.40;45.50;;;;;;4994684;28;20496;-77
2022/10/06 14:31:05;;;;;;;0.90;0.70;;;28.70;47.10;;;;;;4994583;28;20479;-77
2022/10/06 14:33:32;;;;;;;0.90;0.70;;;28.70;47.30;;;;;;4994232;28;20461;-77
2022/10/06 14:36:01;;;;;;;0.70;0.70;;;28.80;46.90;;;;;;4994043;28;20572;-77
2022/10/06 14:38:28;;;;;;;0.70;0.60;;;29.00;46.30;;;;;;4994911;28;20462;-76
2022/10/06 14:40:55;;;;;;;1.17;0.70;;;29.10;46.70;;;;;;4994124;28;20465;-76
2022/10/06 14:43:21;;;;;;;0.97;0.70;;;29.00;46.70;;;;;;4994261;28;20449;-77
2022/10/06 14:45:48;;;;;;;0.80;0.70;;;28.70;46.90;;;;;;4994268;28;20453;-77
2022/10/06 14:48:15;;;;;;;0.80;0.60;;;28.20;47.10;;;;;;4993876;28;20448;-78
2022/10/06 14:50:43;;;;;;;0.70;0.70;;;27.50;48.70;;;;;;4993919;28;20445;-76
2022/10/06 14:53:14;;;;;;;0.80;0.70;;;26.70;49.80;;;;;;4993942;28;20536;-76
2022/10/06 14:55:41;;;;;;;0.70;0.70;;;26.00;51.20;;;;;;4993572;28;21104;-76
2022/10/06 14:58:08;;;;;;;1.47;0.70;;;25.20;52.80;;;;;;4993880;28;20461;-76
2022/10/06 15:00:36;;;;;;;0.77;0.77;;;24.60;53.90;;;;;;4993968;28;20457;-76
2022/10/06 15:03:03;;;;;;;0.90;0.70;;;24.10;55.50;;;;;;4994524;28;20454;-77
2022/10/06 15:05:30;;;;;;;0.80;0.70;;;23.70;56.30;;;;;;4994450;28;20442;-76
2022/10/06 15:08:11;;;;;;;0.70;0.60;;;23.30;56.70;;;;;;4993964;28;20456;-78
2022/10/06 15:10:39;;;;;;;0.70;0.60;;;22.90;57.80;;;;;;4993929;28;20465;-77
2022/10/06 15:13:08;;;;;;;1.30;0.60;;;22.60;58.60;;;;;;4994025;28;20457;-76
2022/10/06 15:15:35;;;;;;;1.10;0.80;;;22.50;59.40;;;;;;4995599;28;20504;-76
2022/10/06 15:18:02;;;;;;;0.70;0.60;;;22.30;59.80;;;;;;4993700;28;20465;-76
2022/10/06 15:20:29;;;;;;;0.70;0.60;;;22.00;60.90;;;;;;4994686;28;20452;-78
2022/10/06 15:22:56;;;;;;;1.43;0.80;;;21.90;61.10;;;;;;4999134;28;20449;-78
2022/10/06 15:30:56;;;;;;;0.67;0.60;;;21.50;62.40;;;;;;4998472;28;20453;-75
2022/10/06 15:33:23;;;;;;;0.60;0.60;;;21.40;62.70;;;;;;4998077;28;20519;-77
2022/10/06 15:36:10;;;;;;;1.00;0.70;;;21.20;62.60;;;;;;4997234;28;20484;-78
2022/10/06 15:38:37;;;;;;;1.33;0.80;;;21.00;63.00;;;;;;4997165;28;20437;-78
2022/10/06 15:41:06;;;;;;;0.80;0.80;;;20.90;63.40;;;;;;4997892;28;20524;-78
2022/10/06 15:46:14;;;;;;;0.90;0.90;;;20.70;63.80;;;;;;4995784;28;20586;-77
2022/10/06 15:48:41;;;;;;;1.00;0.90;;;20.60;64.30;;;;;;4996926;28;20500;-76
2022/10/06 15:51:09;;;;;;;0.70;0.60;;;20.50;64.40;;;;;;4998000;28;20552;-76
2022/10/06 15:53:35;;;;;;;0.87;0.70;;;20.50;64.60;;;;;;4997417;28;20448;-77
2022/10/06 15:56:03;;;;;;;1.00;0.70;;;20.50;65.00;;;;;;4996837;28;20485;-78
2022/10/06 15:58:30;;;;;;;0.70;0.70;;;20.50;64.90;;;;;;4996694;28;20886;-78
2022/10/06 16:00:58;;;;;;;1.83;0.70;;;20.40;65.10;;;;;;4996337;28;20489;-77
2022/10/06 16:03:34;;;;;;;1.00;0.70;;;20.40;65.30;;;;;;4996841;28;20911;-76
2022/10/06 16:06:03;;;;;;;0.70;0.60;;;20.40;65.50;;;;;;4997914;28;20433;-76
2022/10/06 16:08:32;;;;;;;0.70;0.60;;;20.40;65.40;;;;;;4997396;28;20509;-76
2022/10/06 16:10:59;;;;;;;0.90;0.80;;;20.30;65.50;;;;;;4997718;28;20472;-76
2022/10/06 16:13:26;;;;;;;0.93;0.83;;;20.30;66.20;;;;;;4997525;28;20454;-76
2022/10/06 16:15:53;;;;;;;0.70;0.60;;;20.20;66.40;;;;;;4996775;28;20480;-76
2022/10/06 16:18:21;;;;;;;1.20;0.77;;;20.20;66.40;;;;;;4996575;28;20446;-77
2022/10/06 16:20:52;;;;;;;0.97;0.73;;;20.20;66.50;;;;;;4997075;28;20885;-77
2022/10/06 16:23:19;;;;;;;0.83;0.80;;;20.20;66.60;;;;;;4997261;28;20469;-77
2022/10/06 16:25:45;;;;;;;0.80;0.77;;;20.10;66.50;;;;;;4996531;28;20945;-77